Wetterdaten: Woche 09.10.17 - 15.10.17 (KW41)
Datum Zeit Temp. A. Feuchte A. Luftdruck Regen Wind Richtung Taupunkt Windchill Windben
09.10.2017 00:00 10,7 C 82 % 1015,8 hPa 2,1 l/m 3,5 km/h N 7,8 C 10,7 C 13,7 km/h
09.10.2017 01:00 9,8 C 82 % 1016,6 hPa 0,8 l/m 4,2 km/h N 6,8 C 9,8 C 17,3 km/h
09.10.2017 02:00 8,8 C 82 % 1017,1 hPa 0,5 l/m 3,8 km/h N 5,9 C 8,8 C 14,5 km/h
09.10.2017 03:00 8,6 C 82 % 1017,2 hPa 0,3 l/m 1,7 km/h N 5,7 C 8,6 C 7,6 km/h
09.10.2017 04:00 8,5 C 83 % 1017,5 hPa 0,0 l/m 2,0 km/h N 5,7 C 8,5 C 7,6 km/h
09.10.2017 05:00 8,0 C 82 % 1017,5 hPa 0,0 l/m 1,1 km/h N 5,1 C 8,0 C 6,4 km/h
09.10.2017 06:00 8,0 C 82 % 1017,8 hPa 0,0 l/m 2,8 km/h N 5,1 C 8,0 C 9,3 km/h
09.10.2017 07:00 8,1 C 82 % 1018,1 hPa 0,0 l/m 2,0 km/h N 5,1 C 8,1 C 8,9 km/h
09.10.2017 08:00 8,8 C 80 % 1018,5 hPa 0,0 l/m 3,9 km/h N 5,5 C 8,8 C 12,1 km/h
09.10.2017 09:00 9,9 C 76 % 1018,9 hPa 0,0 l/m 5,8 km/h N 5,9 C 9,8 C 15,7 km/h
09.10.2017 10:00 11,4 C 66 % 1018,9 hPa 0,0 l/m 6,3 km/h N 5,3 C 11,2 C 18,5 km/h
09.10.2017 11:00 12,6 C 59 % 1018,8 hPa 0,0 l/m 5,6 km/h N 4,8 C 12,6 C 16,5 km/h
09.10.2017 12:00 13,4 C 58 % 1018,7 hPa 0,0 l/m 5,7 km/h N 5,3 C 13,3 C 19,7 km/h
09.10.2017 13:00 13,7 C 59 % 1018,4 hPa 0,0 l/m 6,4 km/h N 5,7 C 13,5 C 21,3 km/h
09.10.2017 14:00 13,4 C 62 % 1018,2 hPa 0,0 l/m 3,5 km/h N 6,4 C 13,4 C 12,1 km/h
09.10.2017 15:00 13,5 C 62 % 1017,9 hPa 0,0 l/m 4,7 km/h N 6,2 C 13,5 C 15,3 km/h
09.10.2017 16:00 13,1 C 62 % 1017,8 hPa 0,0 l/m 3,1 km/h N 6,0 C 13,1 C 12,1 km/h
09.10.2017 17:00 13,1 C 65 % 1017,7 hPa 0,0 l/m 1,0 km/h N 6,6 C 13,1 C 8,1 km/h
09.10.2017 18:00 12,1 C 69 % 1018,0 hPa 0,0 l/m 0,1 km/h N 6,6 C 12,1 C 3,2 km/h
09.10.2017 19:00 11,1 C 76 % 1018,3 hPa 0,0 l/m 0,0 km/h N 7,0 C 11,1 C 1,2 km/h
09.10.2017 20:00 11,2 C 78 % 1018,4 hPa 0,0 l/m 0,0 km/h N 7,5 C 11,2 C 0,8 km/h
09.10.2017 21:00 10,9 C 78 % 1018,5 hPa 0,0 l/m 0,0 km/h N 7,3 C 10,9 C 0,0 km/h
09.10.2017 22:00 10,3 C 80 % 1018,5 hPa 0,0 l/m 0,0 km/h N 7,0 C 10,3 C 0,0 km/h
09.10.2017 23:00 10,3 C 81 % 1018,4 hPa 0,0 l/m 0,0 km/h N 7,2 C 10,3 C 1,2 km/h
10.10.2017 00:00 10,3 C 82 % 1018,4 hPa 0,0 l/m 0,0 km/h N 7,3 C 10,3 C 0,0 km/h
10.10.2017 01:00 10,6 C 81 % 1018,3 hPa 0,0 l/m 1,9 km/h N 7,5 C 10,6 C 11,7 km/h
10.10.2017 02:00 11,4 C 77 % 1018,3 hPa 0,0 l/m 3,5 km/h N 7,4 C 11,4 C 17,3 km/h
10.10.2017 03:00 11,6 C 74 % 1018,1 hPa 0,0 l/m 2,2 km/h N 7,1 C 11,6 C 10,4 km/h
10.10.2017 04:00 11,3 C 77 % 1017,9 hPa 0,0 l/m 0,7 km/h N 7,3 C 11,3 C 8,9 km/h
10.10.2017 05:00 11,0 C 79 % 1017,6 hPa 0,0 l/m 2,7 km/h N 7,4 C 11,0 C 15,3 km/h
10.10.2017 06:00 10,5 C 79 % 1017,5 hPa 0,0 l/m 1,1 km/h N 7,0 C 10,5 C 11,3 km/h
10.10.2017 07:00 10,7 C 77 % 1017,8 hPa 0,0 l/m 3,3 km/h N 6,9 C 10,7 C 15,7 km/h
10.10.2017 08:00 11,0 C 77 % 1018,2 hPa 0,0 l/m 0,1 km/h N 7,1 C 11,0 C 4,0 km/h
10.10.2017 09:00 11,4 C 78 % 1018,5 hPa 0,0 l/m 0,0 km/h N 7,7 C 11,4 C 0,8 km/h
10.10.2017 10:00 12,2 C 76 % 1018,5 hPa 0,0 l/m 0,0 km/h N 8,1 C 12,2 C 2,0 km/h
10.10.2017 11:00 13,6 C 70 % 1018,7 hPa 0,0 l/m 1,5 km/h N 8,2 C 13,6 C 10,1 km/h
10.10.2017 12:00 15,1 C 62 % 1018,5 hPa 0,0 l/m 3,0 km/h N 7,8 C 15,1 C 16,9 km/h
10.10.2017 13:00 16,3 C 58 % 1018,0 hPa 0,0 l/m 4,0 km/h N 8,0 C 16,3 C 18,9 km/h
10.10.2017 14:00 16,9 C 57 % 1017,7 hPa 0,0 l/m 3,0 km/h N 8,4 C 16,9 C 16,5 km/h
10.10.2017 15:00 16,9 C 57 % 1017,8 hPa 0,0 l/m 5,6 km/h N 8,3 C 16,7 C 19,7 km/h
10.10.2017 16:00 16,6 C 58 % 1017,7 hPa 0,0 l/m 3,4 km/h N 8,3 C 16,6 C 17,3 km/h
10.10.2017 17:00 16,1 C 61 % 1018,2 hPa 0,0 l/m 2,5 km/h N 8,5 C 16,1 C 12,1 km/h
10.10.2017 18:00 15,4 C 63 % 1018,7 hPa 0,0 l/m 3,2 km/h N 8,4 C 15,4 C 15,3 km/h
10.10.2017 19:00 14,3 C 67 % 1019,2 hPa 0,0 l/m 0,0 km/h N 8,1 C 14,3 C 6,4 km/h
10.10.2017 20:00 12,5 C 71 % 1019,5 hPa 0,0 l/m 0,0 km/h N 7,3 C 12,5 C 0,8 km/h
10.10.2017 21:00 11,0 C 78 % 1019,6 hPa 0,0 l/m 0,0 km/h N 7,2 C 11,0 C 1,6 km/h
10.10.2017 22:00 11,4 C 81 % 1019,7 hPa 0,0 l/m 0,0 km/h N 8,3 C 11,4 C 4,0 km/h
10.10.2017 23:00 12,8 C 80 % 1019,8 hPa 0,0 l/m 0,0 km/h N 9,3 C 12,8 C 8,1 km/h
11.10.2017 00:00 13,0 C 78 % 1019,8 hPa 0,0 l/m 1,0 km/h N 9,3 C 13,0 C 9,6 km/h
11.10.2017 01:00 13,9 C 77 % 1019,8 hPa 0,0 l/m 8,2 km/h N 9,9 C 12,9 C 29,0 km/h
11.10.2017 02:00 13,6 C 78 % 1020,0 hPa 0,0 l/m 7,0 km/h N 9,8 C 13,2 C 22,9 km/h
11.10.2017 03:00 14,0 C 77 % 1019,8 hPa 0,0 l/m 8,6 km/h N 10,1 C 12,8 C 27,4 km/h
11.10.2017 04:00 14,0 C 77 % 1020,0 hPa 0,0 l/m 2,0 km/h N 10,0 C 14,0 C 17,3 km/h
11.10.2017 05:00 14,4 C 75 % 1020,0 hPa 0,0 l/m 4,8 km/h N 10,1 C 14,1 C 20,5 km/h
11.10.2017 06:00 14,3 C 75 % 1020,3 hPa 0,0 l/m 0,9 km/h N 10,0 C 14,3 C 6,8 km/h
11.10.2017 07:00 13,6 C 77 % 1020,6 hPa 0,0 l/m 0,6 km/h N 9,6 C 13,6 C 6,0 km/h
11.10.2017 08:00 13,3 C 78 % 1020,9 hPa 0,0 l/m 0,1 km/h N 9,5 C 13,3 C 1,6 km/h
11.10.2017 09:00 14,4 C 78 % 1021,1 hPa 0,0 l/m 0,1 km/h N 10,5 C 14,4 C 2,8 km/h
11.10.2017 10:00 17,3 C 71 % 1020,9 hPa 0,0 l/m 0,2 km/h N 11,9 C 17,3 C 4,4 km/h
11.10.2017 11:00 19,3 C 61 % 1020,7 hPa 0,0 l/m 0,4 km/h N 11,7 C 19,3 C 6,4 km/h
11.10.2017 12:00 19,4 C 58 % 1020,5 hPa 0,0 l/m 3,5 km/h N 10,7 C 19,4 C 18,1 km/h
11.10.2017 13:00 19,0 C 57 % 1020,0 hPa 0,0 l/m 2,3 km/h N 10,4 C 19,0 C 9,6 km/h
11.10.2017 14:00 19,9 C 53 % 1019,3 hPa 0,0 l/m 4,8 km/h N 9,8 C 19,9 C 14,9 km/h
11.10.2017 15:00 20,1 C 51 % 1018,8 hPa 0,0 l/m 3,3 km/h N 9,7 C 20,1 C 12,9 km/h
11.10.2017 16:00 19,6 C 54 % 1018,8 hPa 0,0 l/m 1,6 km/h N 9,9 C 19,6 C 8,1 km/h
11.10.2017 17:00 18,7 C 60 % 1019,0 hPa 0,0 l/m 0,0 km/h N 10,9 C 18,7 C 0,4 km/h
11.10.2017 18:00 16,9 C 65 % 1019,2 hPa 0,0 l/m 0,0 km/h N 10,2 C 16,9 C 0,4 km/h
11.10.2017 19:00 14,4 C 72 % 1019,3 hPa 0,0 l/m 0,0 km/h N 9,3 C 14,4 C 0,0 km/h
11.10.2017 20:00 12,9 C 77 % 1019,3 hPa 0,0 l/m 0,0 km/h N 9,0 C 12,9 C 0,4 km/h
11.10.2017 21:00 12,8 C 79 % 1019,3 hPa 0,0 l/m 0,0 km/h N 9,3 C 12,8 C 1,2 km/h
11.10.2017 22:00 12,7 C 80 % 1019,2 hPa 0,0 l/m 0,0 km/h N 9,3 C 12,7 C 0,0 km/h
11.10.2017 23:00 12,3 C 81 % 1019,1 hPa 0,0 l/m 0,0 km/h N 9,1 C 12,3 C 0,8 km/h
12.10.2017 00:00 11,8 C 81 % 1019,2 hPa 0,0 l/m 0,0 km/h N 8,6 C 11,8 C 0,4 km/h
12.10.2017 01:00 10,9 C 82 % 1019,2 hPa 0,0 l/m 0,0 km/h N 8,0 C 10,9 C 0,8 km/h
12.10.2017 02:00 10,6 C 82 % 1019,1 hPa 0,0 l/m 0,0 km/h N 7,7 C 10,6 C 0,0 km/h
12.10.2017 03:00 10,1 C 82 % 1019,0 hPa 0,0 l/m 0,0 km/h N 7,1 C 10,1 C 1,2 km/h
12.10.2017 04:00 9,5 C 82 % 1019,1 hPa 0,0 l/m 0,0 km/h N 6,6 C 9,5 C 1,2 km/h
12.10.2017 05:00 9,0 C 82 % 1019,3 hPa 0,0 l/m 0,0 km/h N 6,1 C 9,0 C 0,0 km/h
12.10.2017 06:00 8,6 C 83 % 1019,6 hPa 0,0 l/m 0,0 km/h N 5,9 C 8,6 C 0,4 km/h
12.10.2017 07:00 7,8 C 83 % 1020,0 hPa 0,0 l/m 0,0 km/h N 5,1 C 7,8 C 0,4 km/h
12.10.2017 08:00 8,1 C 83 % 1020,3 hPa 0,0 l/m 0,0 km/h N 5,4 C 8,1 C 0,4 km/h
12.10.2017 09:00 10,3 C 83 % 1020,7 hPa 0,0 l/m 0,0 km/h N 7,5 C 10,3 C 0,8 km/h
12.10.2017 10:00 13,7 C 81 % 1020,8 hPa 0,0 l/m 2,3 km/h N 10,5 C 13,7 C 10,1 km/h
12.10.2017 11:00 18,1 C 65 % 1020,6 hPa 0,0 l/m 4,9 km/h N 11,4 C 17,9 C 15,3 km/h
12.10.2017 12:00 20,4 C 54 % 1020,7 hPa 0,0 l/m 1,8 km/h N 10,9 C 20,4 C 14,1 km/h
12.10.2017 13:00 21,8 C 49 % 1020,3 hPa 0,0 l/m 5,6 km/h N 10,4 C 21,6 C 20,9 km/h
12.10.2017 14:00 21,7 C 46 % 1020,4 hPa 0,0 l/m 10,3 km/h N 9,6 C 20,5 C 28,6 km/h
12.10.2017 15:00 20,9 C 50 % 1020,9 hPa 0,0 l/m 6,5 km/h N 9,9 C 20,6 C 22,5 km/h
12.10.2017 16:00 20,3 C 55 % 1020,9 hPa 0,0 l/m 6,4 km/h N 11,0 C 19,9 C 23,7 km/h
12.10.2017 17:00 19,5 C 59 % 1021,3 hPa 0,0 l/m 5,1 km/h N 11,4 C 19,4 C 22,5 km/h
12.10.2017 18:00 18,6 C 63 % 1021,9 hPa 0,0 l/m 5,2 km/h N 11,4 C 18,5 C 21,7 km/h
12.10.2017 19:00 17,8 C 66 % 1022,5 hPa 0,0 l/m 5,5 km/h N 11,3 C 17,7 C 22,9 km/h
12.10.2017 20:00 17,6 C 67 % 1023,0 hPa 0,0 l/m 6,9 km/h N 11,3 C 17,3 C 21,3 km/h
12.10.2017 21:00 17,6 C 67 % 1023,0 hPa 0,0 l/m 7,6 km/h N 11,4 C 17,0 C 24,9 km/h
12.10.2017 22:00 17,5 C 67 % 1022,8 hPa 0,0 l/m 9,2 km/h N 11,3 C 16,3 C 29,8 km/h
12.10.2017 23:00 17,3 C 67 % 1023,0 hPa 0,0 l/m 7,6 km/h N 11,1 C 16,6 C 23,8 km/h
13.10.2017 00:00 17,0 C 66 % 1023,3 hPa 0,0 l/m 6,9 km/h N 10,6 C 16,6 C 23,3 km/h
13.10.2017 01:00 16,6 C 66 % 1023,2 hPa 0,0 l/m 8,0 km/h N 10,2 C 15,8 C 25,3 km/h
13.10.2017 02:00 16,4 C 67 % 1023,3 hPa 0,0 l/m 9,0 km/h N 10,2 C 15,0 C 33,0 km/h
13.10.2017 03:00 16,2 C 67 % 1023,3 hPa 0,0 l/m 9,1 km/h N 10,1 C 14,8 C 25,7 km/h
13.10.2017 04:00 15,9 C 68 % 1023,3 hPa 0,0 l/m 12,8 km/h N 10,0 C 13,1 C 29,8 km/h
13.10.2017 05:00 15,5 C 70 % 1023,4 hPa 0,0 l/m 13,1 km/h N 10,0 C 12,5 C 31,0 km/h
13.10.2017 06:00 15,2 C 73 % 1023,7 hPa 0,0 l/m 12,5 km/h N 10,5 C 12,4 C 31,8 km/h
13.10.2017 07:00 15,3 C 73 % 1024,1 hPa 0,0 l/m 9,8 km/h N 10,3 C 13,5 C 29,4 km/h
13.10.2017 08:00 15,3 C 72 % 1025,0 hPa 0,0 l/m 3,5 km/h N 10,3 C 15,3 C 18,1 km/h
13.10.2017 09:00 15,5 C 72 % 1025,5 hPa 0,0 l/m 2,1 km/h N 10,5 C 15,5 C 13,7 km/h
13.10.2017 10:00 16,8 C 69 % 1025,5 hPa 0,0 l/m 5,0 km/h N 11,0 C 16,8 C 19,3 km/h
13.10.2017 11:00 18,2 C 60 % 1025,5 hPa 0,0 l/m 6,7 km/h N 10,4 C 17,7 C 21,4 km/h
13.10.2017 12:00 18,6 C 58 % 1025,7 hPa 0,0 l/m 11,3 km/h N 10,0 C 16,7 C 30,2 km/h
13.10.2017 13:00 18,9 C 56 % 1025,3 hPa 0,0 l/m 7,8 km/h N 9,8 C 18,2 C 24,1 km/h
13.10.2017 14:00 19,2 C 57 % 1024,9 hPa 0,0 l/m 8,8 km/h N 10,4 C 18,3 C 26,5 km/h
13.10.2017 15:00 19,4 C 55 % 1024,6 hPa 0,0 l/m 6,6 km/h N 10,1 C 19,0 C 21,7 km/h
13.10.2017 16:00 19,0 C 55 % 1024,5 hPa 0,0 l/m 8,4 km/h N 9,6 C 18,1 C 23,3 km/h
13.10.2017 17:00 18,5 C 57 % 1024,4 hPa 0,0 l/m 4,1 km/h N 9,9 C 18,5 C 13,7 km/h
13.10.2017 18:00 17,4 C 60 % 1024,7 hPa 0,0 l/m 1,5 km/h N 9,5 C 17,4 C 10,1 km/h
13.10.2017 19:00 16,8 C 62 % 1025,1 hPa 0,0 l/m 1,9 km/h N 9,5 C 16,8 C 10,9 km/h
13.10.2017 20:00 15,5 C 66 % 1025,3 hPa 0,0 l/m 0,0 km/h N 9,1 C 15,5 C 0,8 km/h
13.10.2017 21:00 14,9 C 69 % 1025,8 hPa 0,0 l/m 1,7 km/h N 9,1 C 14,9 C 7,6 km/h
13.10.2017 22:00 15,8 C 66 % 1026,1 hPa 0,0 l/m 3,3 km/h N 9,3 C 15,8 C 12,9 km/h
13.10.2017 23:00 15,0 C 69 % 1026,4 hPa 0,0 l/m 1,4 km/h N 9,3 C 15,0 C 8,9 km/h
14.10.2017 00:00 14,7 C 70 % 1026,2 hPa 0,0 l/m 1,2 km/h N 9,3 C 14,7 C 8,4 km/h
14.10.2017 01:00 14,1 C 72 % 1026,1 hPa 0,0 l/m 0,9 km/h N 9,1 C 14,1 C 5,6 km/h
14.10.2017 02:00 13,6 C 74 % 1026,3 hPa 0,0 l/m 0,8 km/h N 9,0 C 13,6 C 6,0 km/h
14.10.2017 03:00 13,9 C 72 % 1026,5 hPa 0,0 l/m 0,5 km/h N 8,9 C 13,9 C 4,4 km/h
14.10.2017 04:00 11,7 C 75 % 1026,9 hPa 0,0 l/m 0,0 km/h N 7,4 C 11,7 C 0,4 km/h
14.10.2017 05:00 10,0 C 79 % 1027,3 hPa 0,0 l/m 0,0 km/h N 6,5 C 10,0 C 0,0 km/h
14.10.2017 06:00 9,1 C 82 % 1027,6 hPa 0,0 l/m 0,0 km/h N 6,2 C 9,1 C 0,0 km/h
14.10.2017 07:00 9,0 C 82 % 1027,9 hPa 0,0 l/m 0,0 km/h N 6,1 C 9,0 C 0,4 km/h
14.10.2017 08:00 9,3 C 82 % 1028,2 hPa 0,0 l/m 0,0 km/h N 6,4 C 9,3 C 0,0 km/h
14.10.2017 09:00 12,6 C 82 % 1028,3 hPa 0,0 l/m 2,4 km/h N 9,6 C 12,6 C 8,8 km/h
14.10.2017 10:00 16,0 C 71 % 1028,7 hPa 0,0 l/m 4,3 km/h N 10,8 C 16,0 C 14,1 km/h
14.10.2017 11:00 17,4 C 65 % 1028,7 hPa 0,0 l/m 6,9 km/h N 10,6 C 17,1 C 17,3 km/h
14.10.2017 12:00 18,2 C 62 % 1028,4 hPa 0,0 l/m 7,6 km/h N 10,7 C 17,5 C 20,1 km/h
14.10.2017 13:00 18,6 C 60 % 1027,8 hPa 0,0 l/m 5,4 km/h N 10,6 C 18,5 C 18,9 km/h
14.10.2017 14:00 18,9 C 60 % 1027,2 hPa 0,0 l/m 5,6 km/h N 11,1 C 18,9 C 16,1 km/h
14.10.2017 15:00 19,2 C 61 % 1026,7 hPa 0,0 l/m 4,8 km/h N 11,4 C 19,2 C 12,9 km/h
14.10.2017 16:00 19,3 C 61 % 1026,7 hPa 0,0 l/m 4,3 km/h N 11,4 C 19,3 C 11,3 km/h
14.10.2017 17:00 18,7 C 63 % 1027,0 hPa 0,0 l/m 2,6 km/h N 11,5 C 18,7 C 7,6 km/h
14.10.2017 18:00 17,1 C 67 % 1027,3 hPa 0,0 l/m 0,0 km/h N 10,8 C 17,1 C 0,4 km/h
14.10.2017 19:00 14,6 C 73 % 1027,8 hPa 0,0 l/m 0,0 km/h N 9,8 C 14,6 C 0,4 km/h
14.10.2017 20:00 12,8 C 79 % 1028,1 hPa 0,0 l/m 0,0 km/h N 9,3 C 12,8 C 1,6 km/h
14.10.2017 21:00 11,9 C 81 % 1028,1 hPa 0,0 l/m 0,0 km/h N 8,7 C 11,9 C 0,0 km/h
14.10.2017 22:00 11,4 C 82 % 1028,3 hPa 0,0 l/m 0,0 km/h N 8,5 C 11,4 C 0,0 km/h
14.10.2017 23:00 10,9 C 82 % 1028,2 hPa 0,0 l/m 0,0 km/h N 7,9 C 10,9 C 0,0 km/h
15.10.2017 00:00 10,8 C 82 % 1028,1 hPa 0,0 l/m 0,0 km/h N 7,8 C 10,8 C 1,2 km/h
15.10.2017 01:00 10,7 C 82 % 1028,2 hPa 0,0 l/m 0,0 km/h N 7,7 C 10,7 C 0,0 km/h
15.10.2017 02:00 10,1 C 82 % 1028,2 hPa 0,0 l/m 0,0 km/h N 7,2 C 10,1 C 0,0 km/h
15.10.2017 03:00 9,4 C 82 % 1028,1 hPa 0,0 l/m 0,0 km/h N 6,6 C 9,4 C 0,0 km/h
15.10.2017 04:00 9,3 C 83 % 1028,1 hPa 0,0 l/m 0,0 km/h N 6,4 C 9,3 C 0,8 km/h
15.10.2017 05:00 9,0 C 83 % 1028,2 hPa 0,0 l/m 0,0 km/h N 6,3 C 9,0 C 0,0 km/h
15.10.2017 06:00 9,1 C 84 % 1028,2 hPa 0,0 l/m 0,0 km/h N 6,5 C 9,1 C 0,8 km/h
15.10.2017 07:00 8,8 C 83 % 1028,5 hPa 0,0 l/m 0,0 km/h N 6,1 C 8,8 C 0,0 km/h
15.10.2017 08:00 8,8 C 83 % 1028,9 hPa 0,0 l/m 0,0 km/h N 6,1 C 8,8 C 0,4 km/h
15.10.2017 09:00 11,4 C 84 % 1028,9 hPa 0,0 l/m 0,0 km/h N 8,7 C 11,4 C 0,8 km/h
15.10.2017 10:00 13,9 C 83 % 1028,9 hPa 0,0 l/m 0,0 km/h N 11,1 C 13,9 C 1,2 km/h
15.10.2017 11:00 17,2 C 79 % 1028,6 hPa 0,0 l/m 0,0 km/h N 13,5 C 17,2 C 2,0 km/h
15.10.2017 12:00 20,3 C 66 % 1028,3 hPa 0,0 l/m 0,2 km/h N 13,6 C 20,3 C 5,2 km/h
15.10.2017 13:00 21,4 C 62 % 1027,8 hPa 0,0 l/m 0,4 km/h N 13,7 C 21,4 C 6,8 km/h
15.10.2017 14:00 21,8 C 60 % 1027,3 hPa 0,0 l/m 0,4 km/h N 13,7 C 21,8 C 6,0 km/h
15.10.2017 15:00 22,0 C 59 % 1026,9 hPa 0,0 l/m 0,2 km/h N 13,6 C 22,0 C 5,6 km/h
15.10.2017 16:00 21,5 C 60 % 1026,5 hPa 0,0 l/m 0,0 km/h N 13,3 C 21,5 C 1,2 km/h
15.10.2017 17:00 20,5 C 63 % 1026,2 hPa 0,0 l/m 0,0 km/h N 13,1 C 20,5 C 0,4 km/h
15.10.2017 18:00 18,6 C 68 % 1026,2 hPa 0,0 l/m 0,0 km/h N 12,5 C 18,6 C 0,0 km/h
15.10.2017 19:00 15,7 C 75 % 1026,7 hPa 0,0 l/m 0,0 km/h N 11,4 C 15,7 C 0,0 km/h
15.10.2017 20:00 13,7 C 79 % 1026,5 hPa 0,0 l/m 0,0 km/h N 10,2 C 13,7 C 0,0 km/h
15.10.2017 21:00 12,3 C 81 % 1026,4 hPa 0,0 l/m 0,0 km/h N 9,2 C 12,3 C 0,0 km/h
15.10.2017 22:00 11,5 C 82 % 1026,4 hPa 0,0 l/m 0,0 km/h N 8,5 C 11,5 C 0,0 km/h
15.10.2017 23:00 10,8 C 82 % 1026,3 hPa 0,0 l/m 0,0 km/h N 7,8 C 10,8 C 0,0 km/h
Min-Datum _ 12.10.17 12.10.17 09.10.17 - 09.10.17 - 09.10.17 12.10.17 09.10.17
_ Min-Zeit 07:45 14:30 00:00 - 18:15 - 11:30 07:45 19:00
Minimum _ 7,6 C 45 % 1015,7 hPa - 0,0 km/h - 4,2 C 7,6 C 0,0 km/h
Max-Datum _ 15.10.17 15.10.17 15.10.17 09.10.17 13.10.17 - 15.10.17 15.10.17 13.10.17
_ Max-Zeit 15:00 06:15 08:15 00:00 04:45 - 11:30 15:00 02:15
Maximum _ 22,1 C 87 % 1029,0 hPa 2,1 l/m 16,4 km/h
N
- 14,0 C 22,1 C 40,2 km/h
N
Durchschnitt _ 14,2 C 71 % 1022,4 hPa #3,6 l/m 2,7 km/h N 8,9 C 14,0 C 10,1 km/h